createdAt,value
2017-08-17T00:01:49.430Z,82.17
2017-08-17T00:04:17.724Z,82.15
2017-08-17T00:06:46.085Z,82.10
2017-08-17T00:09:14.376Z,82.99
2017-08-17T00:11:42.710Z,83.05
2017-08-17T00:14:11.037Z,82.91
2017-08-17T00:16:39.349Z,83.01
2017-08-17T00:19:07.769Z,83.07
2017-08-17T00:21:36.093Z,83.16
2017-08-17T00:24:05.244Z,83.38
2017-08-17T00:26:33.581Z,83.39
2017-08-17T00:29:01.910Z,83.26
2017-08-17T00:31:30.385Z,83.21
2017-08-17T00:33:58.700Z,83.23
2017-08-17T00:36:27.764Z,83.23
2017-08-17T00:38:56.081Z,83.16
2017-08-17T00:41:24.425Z,83.19
2017-08-17T00:43:52.730Z,83.17
2017-08-17T00:46:21.795Z,83.11
2017-08-17T00:48:50.118Z,82.93
2017-08-17T00:51:18.421Z,82.98
2017-08-17T00:53:46.727Z,82.94
2017-08-17T00:56:15.088Z,83.10
2017-08-17T00:58:43.464Z,83.18
2017-08-17T01:01:11.852Z,83.26
2017-08-17T01:03:40.170Z,83.33
2017-08-17T01:06:09.331Z,83.41
2017-08-17T01:08:37.642Z,83.47
2017-08-17T01:11:06.810Z,83.45
2017-08-17T01:13:35.186Z,83.41
2017-08-17T01:16:03.502Z,83.31
2017-08-17T01:18:31.841Z,83.34
2017-08-17T01:21:00.146Z,83.38
2017-08-17T01:23:29.311Z,83.46
2017-08-17T01:25:57.685Z,83.52
2017-08-17T01:28:26.000Z,83.71
2017-08-17T01:30:55.061Z,83.76
2017-08-17T01:33:23.364Z,84.04
2017-08-17T01:35:52.529Z,84.17
2017-08-17T01:38:20.923Z,84.30
2017-08-17T01:40:49.244Z,84.65
2017-08-17T01:43:17.567Z,84.78
2017-08-17T01:45:45.876Z,85.71
2017-08-17T01:48:15.039Z,85.76
2017-08-17T01:50:43.352Z,85.94
2017-08-17T01:53:12.417Z,86.02
2017-08-17T01:55:40.724Z,86.12
2017-08-17T01:58:09.790Z,85.96
2017-08-17T02:00:38.100Z,85.82
2017-08-17T02:03:07.185Z,85.58
2017-08-17T02:05:36.292Z,85.68
2017-08-17T02:08:05.454Z,85.63
2017-08-17T02:10:33.757Z,85.54
2017-08-17T02:13:02.829Z,85.57
2017-08-17T02:15:31.211Z,85.66
2017-08-17T02:17:59.547Z,85.79
2017-08-17T02:20:27.862Z,85.76
2017-08-17T02:22:56.185Z,85.94
2017-08-17T02:25:24.498Z,86.15
2017-08-17T02:27:52.818Z,86.37
2017-08-17T02:30:21.982Z,86.53
2017-08-17T02:32:50.293Z,86.79
2017-08-17T02:35:19.482Z,87.07
2017-08-17T02:37:47.813Z,87.06
2017-08-17T02:40:16.217Z,86.95
2017-08-17T02:42:44.551Z,86.81
2017-08-17T02:45:12.873Z,86.50
2017-08-17T02:47:41.323Z,86.23
2017-08-17T02:50:09.650Z,86.19
2017-08-17T02:52:38.010Z,86.21
2017-08-17T02:55:06.341Z,86.13
2017-08-17T02:57:34.666Z,86.10
2017-08-17T03:00:03.063Z,86.05
2017-08-17T03:02:31.380Z,86.11
2017-08-17T03:04:59.710Z,86.08
2017-08-17T03:07:28.082Z,86.06
2017-08-17T03:09:56.463Z,86.02
2017-08-17T03:12:24.765Z,86.07
2017-08-17T03:14:53.938Z,86.10
2017-08-17T03:17:22.275Z,86.38
2017-08-17T03:19:50.585Z,86.71
2017-08-17T03:22:18.901Z,86.78
2017-08-17T03:24:48.061Z,87.17
2017-08-17T03:27:16.373Z,87.18
2017-08-17T03:29:45.538Z,87.31
2017-08-17T03:32:13.923Z,87.14
2017-08-17T03:34:42.228Z,87.06
2017-08-17T03:37:11.322Z,87.12
2017-08-17T03:39:40.385Z,87.23
2017-08-17T03:42:08.684Z,87.28
2017-08-17T03:44:37.853Z,87.45
2017-08-17T03:47:06.231Z,87.69
2017-08-17T03:49:34.609Z,87.91
2017-08-17T03:52:02.936Z,87.94
2017-08-17T03:54:31.277Z,88.00
2017-08-17T03:56:59.657Z,88.06
2017-08-17T03:59:28.021Z,88.19
2017-08-17T04:01:56.403Z,88.67
2017-08-17T04:04:24.786Z,88.50
2017-08-17T04:06:53.098Z,88.51
2017-08-17T04:09:22.187Z,88.51
2017-08-17T04:11:51.354Z,88.46
2017-08-17T04:14:19.730Z,88.42
2017-08-17T04:16:48.109Z,88.15
2017-08-17T04:19:16.429Z,88.01
2017-08-17T04:21:45.540Z,87.88
2017-08-17T04:24:13.850Z,87.76
2017-08-17T04:26:42.260Z,87.60
2017-08-17T04:29:10.567Z,87.41
2017-08-17T04:31:38.882Z,87.26
2017-08-17T04:34:07.185Z,86.91
2017-08-17T04:36:35.522Z,86.60
2017-08-17T04:39:03.933Z,86.24
2017-08-17T04:41:32.305Z,86.01
2017-08-17T04:44:00.629Z,85.82
2017-08-17T04:46:28.965Z,85.83
2017-08-17T04:48:57.345Z,85.89
2017-08-17T04:51:25.723Z,85.86
2017-08-17T04:53:54.118Z,85.99
2017-08-17T04:56:46.585Z,85.87
2017-08-17T04:59:14.901Z,85.63
2017-08-17T05:01:43.205Z,85.38
2017-08-17T05:04:11.534Z,85.03
2017-08-17T05:06:40.054Z,84.63
2017-08-17T05:09:08.360Z,84.53
2017-08-17T05:11:37.529Z,84.24
2017-08-17T05:14:05.841Z,84.17
2017-08-17T05:16:34.945Z,84.04
2017-08-17T05:19:04.017Z,83.99
2017-08-17T05:21:32.333Z,83.48
2017-08-17T05:24:00.641Z,83.06
2017-08-17T05:26:28.983Z,82.65
2017-08-17T05:28:57.310Z,82.37
2017-08-17T05:31:25.616Z,81.91
2017-08-17T05:33:54.783Z,81.77
2017-08-17T05:36:23.094Z,81.32
2017-08-17T05:38:52.169Z,80.81
2017-08-17T05:41:20.478Z,79.91
2017-08-17T05:43:48.790Z,78.82
2017-08-17T05:46:17.113Z,77.90
2017-08-17T05:48:46.196Z,76.38
2017-08-17T05:51:14.561Z,74.81
2017-08-17T05:53:42.872Z,72.43
2017-08-17T05:56:11.938Z,71.73
2017-08-17T05:58:40.309Z,70.50
2017-08-17T06:01:08.614Z,70.87
2017-08-17T06:03:37.792Z,70.47
2017-08-17T06:06:06.130Z,70.88
2017-08-17T06:08:34.438Z,71.03
2017-08-17T06:11:02.774Z,70.95
2017-08-17T06:13:31.079Z,71.23
2017-08-17T06:15:59.474Z,70.91
2017-08-17T06:18:27.866Z,69.47
2017-08-17T06:20:56.195Z,68.48
2017-08-17T06:23:24.514Z,65.98
2017-08-17T06:25:52.838Z,64.60
2017-08-17T06:28:21.144Z,63.73
2017-08-17T06:30:49.461Z,64.29
2017-08-17T06:33:17.822Z,65.15
2017-08-17T06:35:46.510Z,64.57
2017-08-17T06:38:14.818Z,63.47
2017-08-17T06:40:43.896Z,62.24
2017-08-17T06:43:12.211Z,60.38
2017-08-17T06:45:40.537Z,59.52
2017-08-17T06:48:08.909Z,60.42
2017-08-17T06:50:37.217Z,61.70
2017-08-17T06:53:06.302Z,61.66
2017-08-17T06:55:34.665Z,61.83
2017-08-17T06:58:03.058Z,62.81
2017-08-17T07:00:31.374Z,62.99
2017-08-17T07:02:59.697Z,62.59
2017-08-17T07:05:28.077Z,61.96
2017-08-17T07:07:56.385Z,61.42
2017-08-17T07:10:25.470Z,60.57
2017-08-17T07:12:54.537Z,60.29
2017-08-17T07:15:22.922Z,60.48
2017-08-17T07:17:52.250Z,60.49
2017-08-17T07:20:21.434Z,60.39
2017-08-17T07:22:49.741Z,60.37
2017-08-17T07:25:18.069Z,59.53
2017-08-17T07:27:46.449Z,59.90
2017-08-17T07:30:14.836Z,59.95
2017-08-17T07:32:43.221Z,59.64
2017-08-17T07:35:11.525Z,59.13
2017-08-17T07:37:40.677Z,59.13
2017-08-17T07:40:09.070Z,58.52
2017-08-17T07:42:37.388Z,59.17
2017-08-17T07:45:05.705Z,58.98
2017-08-17T07:47:34.093Z,57.91
2017-08-17T07:50:02.400Z,57.20
2017-08-17T07:52:31.502Z,57.62
2017-08-17T07:55:00.669Z,56.86
2017-08-17T07:57:29.054Z,56.06
2017-08-17T07:59:57.423Z,56.01
2017-08-17T08:02:25.802Z,55.21
2017-08-17T08:04:54.114Z,54.10
2017-08-17T08:07:23.285Z,53.86
2017-08-17T08:09:51.661Z,53.03
2017-08-17T08:12:19.977Z,53.21
2017-08-17T08:14:48.317Z,52.13
2017-08-17T08:17:16.690Z,52.57
2017-08-17T08:19:45.069Z,52.69
2017-08-17T08:22:13.412Z,50.86
2017-08-17T08:24:41.746Z,50.77
2017-08-17T08:27:10.927Z,50.09
2017-08-17T08:29:39.242Z,49.53
2017-08-17T08:32:07.589Z,49.63
2017-08-17T08:34:35.954Z,49.55
2017-08-17T08:37:04.277Z,48.23
2017-08-17T08:39:32.574Z,45.68
2017-08-17T08:42:00.897Z,44.71
2017-08-17T08:44:29.198Z,45.84
2017-08-17T08:46:58.287Z,47.16
2017-08-17T08:49:27.354Z,47.12
2017-08-17T08:51:55.732Z,48.85
2017-08-17T08:54:24.122Z,49.41
2017-08-17T08:56:52.486Z,48.48
2017-08-17T08:59:20.792Z,47.84
2017-08-17T09:01:49.858Z,47.72
2017-08-17T09:04:18.166Z,47.15
2017-08-17T09:06:47.338Z,47.66
2017-08-17T09:09:15.654Z,48.49
2017-08-17T09:11:43.987Z,49.00
2017-08-17T09:14:12.368Z,49.52
2017-08-17T09:16:40.669Z,49.64
2017-08-17T09:19:09.040Z,49.21
2017-08-17T09:21:37.402Z,49.46
2017-08-17T09:24:05.782Z,49.75
2017-08-17T09:26:34.086Z,50.05
2017-08-17T09:29:03.178Z,50.05
2017-08-17T09:31:32.246Z,49.89
2017-08-17T09:34:00.658Z,48.37
2017-08-17T09:36:29.838Z,48.04
2017-08-17T09:38:58.213Z,48.35
2017-08-17T09:41:26.591Z,49.22
2017-08-17T09:43:54.955Z,50.41
2017-08-17T09:46:23.258Z,50.61
2017-08-17T09:48:51.548Z,49.63
2017-08-17T09:51:20.694Z,49.94
2017-08-17T09:53:48.995Z,50.20
2017-08-17T09:56:17.304Z,50.94
2017-08-17T09:58:46.399Z,51.91
2017-08-17T10:01:15.497Z,52.98
2017-08-17T10:03:44.654Z,54.21
2017-08-17T10:06:13.035Z,54.61
2017-08-17T10:08:41.345Z,53.92
2017-08-17T10:11:10.413Z,52.54
2017-08-17T10:13:38.782Z,50.78
2017-08-17T10:16:07.170Z,50.58
2017-08-17T10:18:35.538Z,48.96
2017-08-17T10:21:03.851Z,46.90
2017-08-17T10:23:33.014Z,46.10
2017-08-17T10:26:01.315Z,45.49
2017-08-17T10:28:29.679Z,45.17
2017-08-17T10:30:57.984Z,42.86
2017-08-17T10:33:27.075Z,40.51
2017-08-17T10:35:56.145Z,36.51
2017-08-17T10:38:24.514Z,33.94
2017-08-17T10:40:52.903Z,32.96
2017-08-17T10:43:21.386Z,34.06
2017-08-17T10:45:49.750Z,35.24
2017-08-17T10:48:18.050Z,35.02
2017-08-17T10:50:46.419Z,36.26
2017-08-17T10:53:14.717Z,37.17
2017-08-17T10:55:43.839Z,37.90
2017-08-17T10:58:12.148Z,37.19
2017-08-17T11:00:40.446Z,36.86
2017-08-17T11:03:08.820Z,37.44
2017-08-17T11:05:37.202Z,37.74
2017-08-17T11:08:05.644Z,38.24
2017-08-17T11:10:34.156Z,37.89
2017-08-17T11:13:02.538Z,38.31
2017-08-17T11:15:30.918Z,38.28
2017-08-17T11:17:59.238Z,37.24
2017-08-17T11:20:27.554Z,35.52
2017-08-17T11:22:55.858Z,34.21
2017-08-17T11:25:24.225Z,34.90
2017-08-17T11:27:52.541Z,34.69
2017-08-17T11:30:21.601Z,35.65
2017-08-17T11:32:49.914Z,35.76
2017-08-17T11:35:18.236Z,37.26
2017-08-17T11:37:46.571Z,37.75
2017-08-17T11:40:14.874Z,39.00
2017-08-17T11:42:43.171Z,39.87
2017-08-17T11:45:11.488Z,39.30
2017-08-17T11:47:40.554Z,39.27
2017-08-17T11:50:08.928Z,38.93
2017-08-17T11:52:37.226Z,38.99
2017-08-17T11:55:05.595Z,37.81
2017-08-17T11:57:33.893Z,37.96
2017-08-17T12:00:02.966Z,38.23
2017-08-17T12:02:31.342Z,38.69
2017-08-17T12:04:59.700Z,38.94
2017-08-17T12:07:28.096Z,39.24
2017-08-17T12:09:56.475Z,39.42
2017-08-17T12:12:24.785Z,39.22
2017-08-17T12:14:53.952Z,39.57
2017-08-17T12:17:22.326Z,39.15
2017-08-17T12:19:50.641Z,39.71
2017-08-17T12:22:19.803Z,39.48
2017-08-17T12:24:48.183Z,39.78
2017-08-17T12:27:16.632Z,39.88
2017-08-17T12:29:44.941Z,39.37
2017-08-17T12:32:13.242Z,38.58
2017-08-17T12:34:42.409Z,37.38
2017-08-17T12:37:10.705Z,35.97
2017-08-17T12:39:39.014Z,35.65
2017-08-17T12:42:07.346Z,34.95
2017-08-17T12:44:35.661Z,35.33
2017-08-17T12:47:04.759Z,35.02
2017-08-17T12:49:34.023Z,34.62
2017-08-17T12:52:02.429Z,35.10
2017-08-17T12:54:31.645Z,34.17
2017-08-17T12:56:59.978Z,33.91
2017-08-17T12:59:28.329Z,34.16
2017-08-17T13:01:56.630Z,34.44
2017-08-17T13:04:25.014Z,35.23
2017-08-17T13:06:53.388Z,35.71
2017-08-17T13:09:21.685Z,36.23
2017-08-17T13:11:50.863Z,36.91
2017-08-17T13:14:19.173Z,37.04
2017-08-17T13:16:48.329Z,37.22
2017-08-17T13:19:16.707Z,37.57
2017-08-17T13:21:45.086Z,37.56
2017-08-17T13:24:13.464Z,37.30
2017-08-17T13:26:41.762Z,37.45
2017-08-17T13:29:10.064Z,37.77
2017-08-17T13:31:39.134Z,37.02
2017-08-17T13:34:07.450Z,37.10
2017-08-17T13:36:35.769Z,37.19
2017-08-17T13:39:04.085Z,37.82
2017-08-17T13:41:33.140Z,37.78
2017-08-17T13:44:01.482Z,38.04
2017-08-17T13:46:29.778Z,38.55
2017-08-17T13:48:58.079Z,38.36
2017-08-17T13:51:26.448Z,38.75
2017-08-17T13:53:54.755Z,38.75
2017-08-17T13:56:23.839Z,39.02
2017-08-17T13:58:52.143Z,39.25
2017-08-17T14:01:21.302Z,39.37
2017-08-17T14:03:49.675Z,39.64
2017-08-17T14:06:18.057Z,40.09
2017-08-17T14:08:46.353Z,40.60
2017-08-17T14:11:14.670Z,41.22
2017-08-17T14:13:42.982Z,41.62
2017-08-17T14:16:11.376Z,41.80
2017-08-17T14:18:39.751Z,41.96
2017-08-17T14:21:08.126Z,42.39
2017-08-17T14:23:36.514Z,42.66
2017-08-17T14:26:04.828Z,42.78
2017-08-17T14:28:33.160Z,42.89
2017-08-17T14:31:01.454Z,42.61
2017-08-17T14:33:29.781Z,42.65
2017-08-17T14:35:58.077Z,42.93
2017-08-17T14:38:26.394Z,42.45
2017-08-17T14:40:55.565Z,42.10
2017-08-17T14:43:23.871Z,42.02
2017-08-17T14:45:53.043Z,42.15
2017-08-17T14:48:21.377Z,42.46
2017-08-17T14:50:49.674Z,42.79
2017-08-17T14:53:17.977Z,43.32
2017-08-17T14:55:46.349Z,43.63
2017-08-17T14:58:14.650Z,43.36
2017-08-17T15:00:43.732Z,43.12
2017-08-17T15:03:12.101Z,43.48
2017-08-17T15:05:40.482Z,43.67
2017-08-17T15:08:08.862Z,43.85
2017-08-17T15:10:37.245Z,44.12
2017-08-17T15:13:05.618Z,44.49
2017-08-17T15:15:33.994Z,44.38
2017-08-17T15:18:02.289Z,44.25
2017-08-17T15:20:30.619Z,44.07
2017-08-17T15:22:58.922Z,44.35
2017-08-17T15:25:27.317Z,44.37
2017-08-17T15:27:55.629Z,44.75
2017-08-17T15:30:23.982Z,45.12
2017-08-17T15:32:52.344Z,45.51
2017-08-17T15:35:20.658Z,45.56
2017-08-17T15:37:49.823Z,45.39
2017-08-17T15:40:18.186Z,45.28
2017-08-17T15:42:46.572Z,45.41
2017-08-17T15:45:14.955Z,45.38
2017-08-17T15:47:43.351Z,45.51
2017-08-17T15:50:11.708Z,45.67
2017-08-17T15:52:40.087Z,45.70
2017-08-17T15:55:08.468Z,46.27
2017-08-17T15:57:36.855Z,46.79
2017-08-17T16:00:05.227Z,47.41
2017-08-17T16:02:33.605Z,47.89
2017-08-17T16:05:01.988Z,48.26
2017-08-17T16:07:30.291Z,48.37
2017-08-17T16:09:59.366Z,48.91
2017-08-17T16:12:27.676Z,49.43
2017-08-17T16:14:56.002Z,49.90
2017-08-17T16:17:24.297Z,50.18
2017-08-17T16:19:52.665Z,50.74
2017-08-17T16:22:20.982Z,51.47
2017-08-17T16:24:50.155Z,51.54
2017-08-17T16:27:18.485Z,51.77
2017-08-17T16:29:46.782Z,52.21
2017-08-17T16:32:15.093Z,52.59
2017-08-17T16:34:43.393Z,53.06
2017-08-17T16:37:11.723Z,53.46
2017-08-17T16:39:40.039Z,54.71
2017-08-17T16:42:09.210Z,56.57
2017-08-17T16:44:37.518Z,57.81
2017-08-17T16:47:06.587Z,58.29
2017-08-17T16:49:34.957Z,58.48
2017-08-17T16:52:03.249Z,58.57
2017-08-17T16:54:31.606Z,58.51
2017-08-17T16:56:59.978Z,58.81
2017-08-17T16:59:28.286Z,58.60
2017-08-17T17:01:57.350Z,58.86
2017-08-17T17:04:25.738Z,58.98
2017-08-17T17:06:54.109Z,59.45
2017-08-17T17:09:22.451Z,59.99
2017-08-17T17:11:50.766Z,60.29
2017-08-17T17:14:19.142Z,60.56
2017-08-17T17:16:47.529Z,61.17
2017-08-17T17:19:15.828Z,61.08
2017-08-17T17:21:44.973Z,61.37
2017-08-17T17:24:13.382Z,61.62
2017-08-17T17:26:42.374Z,61.98
2017-08-17T17:29:10.691Z,61.76
2017-08-17T17:31:39.025Z,61.35
2017-08-17T17:34:07.326Z,60.47
2017-08-17T17:36:35.661Z,60.09
2017-08-17T17:39:03.969Z,59.89
2017-08-17T17:41:32.269Z,60.56
2017-08-17T17:44:01.430Z,61.29
2017-08-17T17:46:29.733Z,61.86
2017-08-17T17:48:58.041Z,63.21
2017-08-17T17:51:26.337Z,61.43
2017-08-17T17:53:54.638Z,60.96
2017-08-17T17:56:22.934Z,60.79
2017-08-17T17:58:51.241Z,61.23
2017-08-17T18:01:19.538Z,62.12
2017-08-17T18:03:47.833Z,62.83
2017-08-17T18:06:16.141Z,63.35
2017-08-17T18:09:13.034Z,64.05
2017-08-17T18:11:41.351Z,64.72
2017-08-17T18:14:09.656Z,65.34
2017-08-17T18:16:38.745Z,65.69
2017-08-17T18:19:07.805Z,66.96
2017-08-17T18:21:36.122Z,67.76
2017-08-17T18:24:05.194Z,67.86
2017-08-17T18:26:33.534Z,68.20
2017-08-17T18:29:01.845Z,69.14
2017-08-17T18:31:30.150Z,69.20
2017-08-17T18:33:59.208Z,69.82
2017-08-17T18:36:27.517Z,69.77
2017-08-17T18:38:55.814Z,69.86
2017-08-17T18:41:24.122Z,70.34
2017-08-17T18:43:52.421Z,70.71
2017-08-17T18:46:20.723Z,71.26
2017-08-17T18:48:49.840Z,71.51
2017-08-17T18:51:18.901Z,71.74
2017-08-17T18:53:47.209Z,72.14
2017-08-17T18:56:16.302Z,72.01
2017-08-17T18:58:45.382Z,71.84
2017-08-17T19:01:14.493Z,71.94
2017-08-17T19:03:43.578Z,72.63
2017-08-17T19:06:12.649Z,73.25
2017-08-17T19:08:40.954Z,73.43
2017-08-17T19:11:10.021Z,73.22
2017-08-17T19:13:38.325Z,73.70
2017-08-17T19:16:06.627Z,73.82
2017-08-17T19:18:34.930Z,74.07
2017-08-17T19:21:03.244Z,74.33
2017-08-17T19:23:31.545Z,74.35
2017-08-17T19:26:00.715Z,74.54
2017-08-17T19:28:29.020Z,75.03
2017-08-17T19:30:57.450Z,75.21
2017-08-17T19:33:25.770Z,75.62
2017-08-17T19:35:54.938Z,75.70
2017-08-17T19:38:23.236Z,75.86
2017-08-17T19:40:52.300Z,75.85
2017-08-17T19:43:20.607Z,75.78
2017-08-17T19:45:49.717Z,75.80
2017-08-17T19:48:18.061Z,76.01
2017-08-17T19:50:46.434Z,75.87
2017-08-17T19:53:14.751Z,76.18
2017-08-17T19:55:43.909Z,76.25
2017-08-17T19:58:12.284Z,76.53
2017-08-17T20:00:40.585Z,76.63
2017-08-17T20:03:08.901Z,76.66
2017-08-17T20:05:37.222Z,76.93
2017-08-17T20:08:05.533Z,77.28
2017-08-17T20:10:33.864Z,77.39
2017-08-17T20:13:02.321Z,77.25
2017-08-17T20:15:30.621Z,77.00
2017-08-17T20:17:58.929Z,76.89
2017-08-17T20:20:27.292Z,77.26
2017-08-17T20:22:55.658Z,77.26
2017-08-17T20:25:23.970Z,77.16
2017-08-17T20:27:53.238Z,76.97
2017-08-17T20:30:21.622Z,76.70
2017-08-17T20:32:49.922Z,76.98
2017-08-17T20:35:19.025Z,77.05
2017-08-17T20:37:48.099Z,77.26
2017-08-17T20:40:16.518Z,77.26
2017-08-17T20:42:44.813Z,77.48
2017-08-17T20:45:13.130Z,77.53
2017-08-17T20:47:41.611Z,77.70
2017-08-17T20:50:09.982Z,77.81
2017-08-17T20:52:38.291Z,77.47
2017-08-17T20:55:07.459Z,77.30
2017-08-17T20:57:35.832Z,77.55
2017-08-17T21:00:04.211Z,77.16
2017-08-17T21:02:32.598Z,76.89
2017-08-17T21:05:00.914Z,76.96
2017-08-17T21:07:29.221Z,77.30
2017-08-17T21:09:57.530Z,77.41
2017-08-17T21:12:25.859Z,77.55
2017-08-17T21:14:54.171Z,77.79
2017-08-17T21:17:22.474Z,77.61
2017-08-17T21:19:50.782Z,77.39
2017-08-17T21:22:19.085Z,77.20
2017-08-17T21:24:47.401Z,77.23
2017-08-17T21:27:15.727Z,77.50
2017-08-17T21:29:44.148Z,77.34
2017-08-17T21:32:12.518Z,77.54
2017-08-17T21:34:40.922Z,77.60
2017-08-17T21:37:09.292Z,77.66
2017-08-17T21:39:37.670Z,77.57
2017-08-17T21:42:05.988Z,77.43
2017-08-17T21:44:34.324Z,77.39
2017-08-17T21:47:02.691Z,77.49
2017-08-17T21:49:31.066Z,77.46
2017-08-17T21:51:59.461Z,77.43
2017-08-17T21:54:27.771Z,77.57
2017-08-17T21:56:56.102Z,77.77
2017-08-17T21:59:24.405Z,77.88
2017-08-17T22:01:53.562Z,77.96
2017-08-17T22:04:21.955Z,78.07
2017-08-17T22:06:50.335Z,78.26
2017-08-17T22:09:18.657Z,78.43
2017-08-17T22:11:46.974Z,78.54
2017-08-17T22:14:15.274Z,78.63
2017-08-17T22:16:43.586Z,78.70
2017-08-17T22:19:11.889Z,78.88
2017-08-17T22:21:40.218Z,79.09
2017-08-17T22:24:09.294Z,79.22
2017-08-17T22:26:37.610Z,79.25
2017-08-17T22:29:05.923Z,79.54
2017-08-17T22:31:34.224Z,79.55
2017-08-17T22:34:02.548Z,79.44
2017-08-17T22:36:30.841Z,79.40
2017-08-17T22:38:59.154Z,79.19
2017-08-17T22:41:27.525Z,78.98
2017-08-17T22:43:55.842Z,78.79
2017-08-17T22:46:24.149Z,78.72
2017-08-17T22:48:52.465Z,78.65
2017-08-17T22:51:20.771Z,78.70
2017-08-17T22:53:49.122Z,78.65
2017-08-17T22:56:17.426Z,78.44
2017-08-17T22:58:45.743Z,78.07
2017-08-17T23:01:14.107Z,77.99
2017-08-17T23:03:42.412Z,77.87
2017-08-17T23:06:10.729Z,77.95
2017-08-17T23:08:39.788Z,77.80
2017-08-17T23:11:08.098Z,77.50
2017-08-17T23:13:37.170Z,77.42
2017-08-17T23:16:05.477Z,77.35
2017-08-17T23:18:34.539Z,77.43
2017-08-17T23:21:02.858Z,77.38
2017-08-17T23:23:31.162Z,77.41
2017-08-17T23:25:59.575Z,77.36
2017-08-17T23:28:27.951Z,77.08
2017-08-17T23:30:56.329Z,76.92
2017-08-17T23:33:24.653Z,76.82
2017-08-17T23:35:52.973Z,76.60
2017-08-17T23:38:21.278Z,76.66
2017-08-17T23:40:49.579Z,76.63
2017-08-17T23:43:17.885Z,76.75
2017-08-17T23:45:46.186Z,76.46
2017-08-17T23:48:14.493Z,76.20
2017-08-17T23:50:43.565Z,76.03
2017-08-17T23:53:11.873Z,75.96
2017-08-17T23:55:40.934Z,75.90
2017-08-17T23:58:09.266Z,75.92
